Time,TemperatureF,DewpointF,PressureIn,WindDirection,WindDirectionDegrees,WindSpeedMPH,WindSpeedGustMPH,Humidity,HourlyPrecipIn,Conditions,Clouds,dailyrainin,SoftwareType,DateUTC
2013-01-28 06:35:00,40.1,34.4,30.07,WNW,298,0.0,0.0,80,0.00,,,0.00,Wunderground v.1.15,2013-01-28 14:35:00,
2013-01-28 06:40:00,39.9,34.5,30.07,WNW,298,0.0,0.0,81,0.00,,,0.00,Wunderground v.1.15,2013-01-28 14:40:00,
2013-01-28 06:45:00,39.9,34.5,30.07,WNW,298,0.0,0.0,81,0.00,,,0.00,Wunderground v.1.15,2013-01-28 14:45:00,
2013-01-28 06:50:00,39.9,34.5,30.07,WNW,298,0.0,0.0,81,0.00,,,0.00,Wunderground v.1.15,2013-01-28 14:50:00,
2013-01-28 06:55:00,39.8,34.4,30.07,WNW,298,0.0,0.0,81,0.00,,,0.00,Wunderground v.1.15,2013-01-28 14:55:00,
2013-01-28 07:00:00,39.7,34.7,30.07,WNW,298,0.0,0.0,82,0.00,,,0.00,Wunderground v.1.15,2013-01-28 15:00:00,
2013-01-28 07:10:00,39.5,34.8,30.07,WNW,298,0.0,0.0,83,0.00,,,0.00,Wunderground v.1.15,2013-01-28 15:10:00,
2013-01-28 07:20:00,39.7,35.0,30.07,WNW,298,0.0,0.0,83,0.00,,,0.00,Wunderground v.1.15,2013-01-28 15:20:00,
2013-01-28 07:25:00,39.9,35.2,30.07,WNW,298,0.0,0.0,83,0.00,,,0.00,Wunderground v.1.15,2013-01-28 15:25:00,
2013-01-28 07:30:00,40.1,35.4,30.07,WNW,298,0.0,0.0,83,0.00,,,0.00,Wunderground v.1.15,2013-01-28 15:30:00,
2013-01-28 07:35:00,40.5,36.0,30.07,WNW,298,0.0,0.0,84,0.00,,,0.00,Wunderground v.1.15,2013-01-28 15:35:00,
2013-01-28 07:40:00,40.8,36.3,30.08,WNW,298,0.0,0.0,84,0.00,,,0.00,Wunderground v.1.15,2013-01-28 15:40:00,
2013-01-28 07:50:00,41.9,37.1,30.08,WNW,298,0.0,0.0,83,0.00,,,0.00,Wunderground v.1.15,2013-01-28 15:50:00,
2013-01-28 07:55:00,42.5,37.7,30.07,WNW,298,0.0,0.0,83,0.00,,,0.00,Wunderground v.1.15,2013-01-28 15:55:00,
2013-01-28 08:00:00,43.1,38.0,30.08,WNW,298,0.0,0.0,82,0.00,,,0.00,Wunderground v.1.15,2013-01-28 16:00:00,
2013-01-28 08:05:00,43.8,38.3,30.08,WNW,298,0.0,0.0,81,0.00,,,0.00,Wunderground v.1.15,2013-01-28 16:05:00,
2013-01-28 08:10:00,44.8,39.0,30.08,WNW,298,0.0,0.0,80,0.00,,,0.00,Wunderground v.1.15,2013-01-28 16:10:00,
2013-01-28 08:15:00,45.7,39.6,30.08,WNW,298,0.0,0.0,79,0.00,,,0.00,Wunderground v.1.15,2013-01-28 16:15:00,
2013-01-28 08:20:00,46.3,39.8,30.08,WNW,298,0.0,0.0,78,0.00,,,0.00,Wunderground v.1.15,2013-01-28 16:20:00,
2013-01-28 08:25:00,46.9,40.1,30.08,WNW,298,0.0,0.0,77,0.00,,,0.00,Wunderground v.1.15,2013-01-28 16:25:00,
2013-01-28 08:30:00,47.4,40.6,30.08,WNW,298,0.0,0.0,77,0.00,,,0.00,Wunderground v.1.15,2013-01-28 16:30:00,
2013-01-28 08:35:00,48.1,40.9,30.08,WNW,298,0.0,0.0,76,0.00,,,0.00,Wunderground v.1.15,2013-01-28 16:35:00,
2013-01-28 08:40:00,48.9,41.3,30.08,WNW,298,0.0,0.0,75,0.00,,,0.00,Wunderground v.1.15,2013-01-28 16:40:00,
2013-01-28 08:50:00,50.0,41.7,30.09,WNW,298,0.0,0.0,73,0.00,,,0.00,Wunderground v.1.15,2013-01-28 16:50:00,
2013-01-28 09:00:00,51.1,42.7,30.09,NNW,336,0.0,0.0,73,0.00,,,0.00,Wunderground v.1.15,2013-01-28 17:00:00,
2013-01-28 09:05:00,51.4,42.7,30.09,NE,54,0.0,2.0,72,0.00,,,0.00,Wunderground v.1.15,2013-01-28 17:05:00,
2013-01-28 09:35:00,53.2,42.9,30.10,ENE,66,1.0,1.0,68,0.00,,,0.00,Wunderground v.1.15,2013-01-28 17:35:00,
2013-01-28 09:40:00,53.6,42.9,30.11,ENE,63,1.0,1.0,67,0.00,,,0.00,Wunderground v.1.15,2013-01-28 17:40:00,
2013-01-28 09:45:00,54.0,41.7,30.11,NE,51,1.0,1.0,63,0.00,,,0.00,Wunderground v.1.15,2013-01-28 17:45:00,
2013-01-28 09:50:00,54.4,41.6,30.11,NE,41,1.0,2.0,62,0.00,,,0.00,Wunderground v.1.15,2013-01-28 17:50:00,
2013-01-28 09:55:00,54.6,41.8,30.11,NNE,24,1.0,1.0,62,0.00,,,0.00,Wunderground v.1.15,2013-01-28 17:55:00,
2013-01-28 10:00:00,55.0,41.8,30.11,NE,55,1.0,1.0,61,0.00,,,0.00,Wunderground v.1.15,2013-01-28 18:00:00,
2013-01-28 10:05:00,55.5,41.4,30.11,NE,52,0.0,1.0,59,0.00,,,0.00,Wunderground v.1.15,2013-01-28 18:05:00,
2013-01-28 10:10:00,55.9,41.3,30.11,NE,38,0.0,0.0,58,0.00,,,0.00,Wunderground v.1.15,2013-01-28 18:10:00,
2013-01-28 14:25:00,60.7,36.2,30.07,WSW,251,6.0,6.0,40,0.00,,,0.00,Wunderground v.1.15,2013-01-28 22:25:00,
2013-01-28 14:30:00,60.3,35.9,30.07,West,265,5.0,15.0,40,0.00,,,0.00,Wunderground v.1.15,2013-01-28 22:30:00,
2013-01-28 14:35:00,60.3,36.5,30.07,West,275,6.0,6.0,41,0.00,,,0.00,Wunderground v.1.15,2013-01-28 22:35:00,
2013-01-28 14:45:00,60.5,37.3,30.07,West,259,7.0,9.0,42,0.00,,,0.00,Wunderground v.1.15,2013-01-28 22:45:00,
2013-01-28 14:50:00,60.2,37.0,30.07,WSW,249,8.0,12.0,42,0.00,,,0.00,Wunderground v.1.15,2013-01-28 22:50:00,
2013-01-28 14:55:00,60.3,37.1,30.07,West,269,8.0,8.0,42,0.00,,,0.00,Wunderground v.1.15,2013-01-28 22:55:00,
2013-01-28 15:05:00,60.4,37.8,30.07,WSW,248,7.0,7.0,43,0.00,,,0.00,Wunderground v.1.15,2013-01-28 23:05:00,
2013-01-28 15:10:00,60.3,37.1,30.07,NW,304,8.0,11.0,42,0.00,,,0.00,Wunderground v.1.15,2013-01-28 23:10:00,
2013-01-28 15:25:00,60.0,38.6,30.07,WNW,291,8.0,8.0,45,0.00,,,0.00,Wunderground v.1.15,2013-01-28 23:25:00,
2013-01-28 15:30:00,59.4,38.6,30.08,West,276,9.0,9.0,46,0.00,,,0.00,Wunderground v.1.15,2013-01-28 23:30:00,
2013-01-28 15:40:00,59.2,39.0,30.08,West,263,7.0,7.0,47,0.00,,,0.00,Wunderground v.1.15,2013-01-28 23:40:00,
2013-01-28 15:50:00,58.5,37.2,30.08,WNW,296,8.0,8.0,45,0.00,,,0.00,Wunderground v.1.15,2013-01-28 23:50:00,
2013-01-28 16:00:00,58.0,37.9,30.08,West,263,8.0,12.0,47,0.00,,,0.00,Wunderground v.1.15,2013-01-29 00:00:00,
2013-01-28 16:05:00,57.7,37.6,30.08,West,259,9.0,12.0,47,0.00,,,0.00,Wunderground v.1.15,2013-01-29 00:05:00,
2013-01-28 16:10:00,57.5,36.9,30.08,West,261,9.0,9.0,46,0.00,,,0.00,Wunderground v.1.15,2013-01-29 00:10:00,
2013-01-28 16:20:00,57.6,37.0,30.08,West,263,8.0,9.0,46,0.00,,,0.00,Wunderground v.1.15,2013-01-29 00:20:00,
2013-01-28 16:25:00,57.7,37.0,30.08,West,276,9.0,9.0,46,0.00,,,0.00,Wunderground v.1.15,2013-01-29 00:25:00,
2013-01-28 16:35:00,57.7,37.0,30.09,NW,305,8.0,8.0,46,0.00,,,0.00,Wunderground v.1.15,2013-01-29 00:35:00,
2013-01-28 16:40:00,57.6,38.0,30.09,West,264,8.0,8.0,48,0.00,,,0.00,Wunderground v.1.15,2013-01-29 00:40:00,
2013-01-28 16:45:00,57.3,38.3,30.09,WNW,293,9.0,9.0,49,0.00,,,0.00,Wunderground v.1.15,2013-01-29 00:45:00,
2013-01-28 16:50:00,57.1,38.6,30.09,West,269,8.0,9.0,50,0.00,,,0.00,Wunderground v.1.15,2013-01-29 00:50:00,
2013-01-28 16:55:00,57.1,38.6,30.09,West,265,6.0,6.0,50,0.00,,,0.00,Wunderground v.1.15,2013-01-29 00:55:00,
2013-01-28 17:00:00,56.9,38.9,30.09,West,271,6.0,6.0,51,0.00,,,0.00,Wunderground v.1.15,2013-01-29 01:00:00,
2013-01-28 17:05:00,56.7,39.3,30.09,WSW,256,5.0,6.0,52,0.00,,,0.00,Wunderground v.1.15,2013-01-29 01:05:00,
2013-01-28 17:10:00,56.5,39.6,30.09,West,269,5.0,5.0,53,0.00,,,0.00,Wunderground v.1.15,2013-01-29 01:10:00,
2013-01-28 17:20:00,56.3,39.9,30.10,WNW,296,8.0,8.0,54,0.00,,,0.00,Wunderground v.1.15,2013-01-29 01:20:00,
2013-01-28 17:25:00,56.2,40.2,30.10,West,273,8.0,10.0,55,0.00,,,0.00,Wunderground v.1.15,2013-01-29 01:25:00,
2013-01-28 17:30:00,56.1,41.1,30.09,WSW,250,8.0,8.0,57,0.00,,,0.00,Wunderground v.1.15,2013-01-29 01:30:00,
2013-01-28 17:35:00,56.0,41.9,30.10,West,261,8.0,8.0,59,0.00,,,0.00,Wunderground v.1.15,2013-01-29 01:35:00,
2013-01-28 17:55:00,55.7,42.5,30.10,West,268,5.0,5.0,61,0.00,,,0.00,Wunderground v.1.15,2013-01-29 01:55:00,
2013-01-28 18:05:00,55.7,42.5,30.10,WNW,298,7.0,7.0,61,0.00,,,0.00,Wunderground v.1.15,2013-01-29 02:05:00,
2013-01-28 18:15:00,55.6,42.4,30.10,WNW,287,5.0,5.0,61,0.00,,,0.00,Wunderground v.1.15,2013-01-29 02:15:00,
2013-01-28 18:25:00,55.6,42.8,30.11,West,273,5.0,9.0,62,0.00,,,0.00,Wunderground v.1.15,2013-01-29 02:25:00,
2013-01-28 18:30:00,55.6,42.8,30.11,West,269,6.0,9.0,62,0.00,,,0.00,Wunderground v.1.15,2013-01-29 02:30:00,
2013-01-28 18:40:00,55.5,43.1,30.12,West,273,5.0,5.0,63,0.00,,,0.00,Wunderground v.1.15,2013-01-29 02:40:00,
2013-01-28 18:50:00,55.4,41.7,30.12,WNW,292,4.0,4.0,60,0.00,,,0.00,Wunderground v.1.15,2013-01-29 02:50:00,
2013-01-28 19:10:00,55.1,40.6,30.13,WNW,290,3.0,3.0,58,0.00,,,0.00,Wunderground v.1.15,2013-01-29 03:10:00,
2013-01-28 19:20:00,54.8,37.5,30.13,West,270,4.0,4.0,52,0.00,,,0.00,Wunderground v.1.15,2013-01-29 03:20:00,
2013-01-28 19:25:00,54.8,37.5,30.13,West,280,4.0,4.0,52,0.00,,,0.00,Wunderground v.1.15,2013-01-29 03:25:00,
2013-01-28 19:40:00,54.4,35.1,30.13,West,273,2.0,7.0,48,0.00,,,0.00,Wunderground v.1.15,2013-01-29 03:40:00,
2013-01-28 19:45:00,54.4,34.0,30.13,West,263,3.0,7.0,46,0.00,,,0.00,Wunderground v.1.15,2013-01-29 03:45:00,
2013-01-28 19:50:00,54.4,33.5,30.14,WNW,286,4.0,4.0,45,0.00,,,0.00,Wunderground v.1.15,2013-01-29 03:50:00,
2013-01-28 19:55:00,54.2,33.3,30.14,WNW,284,3.0,4.0,45,0.00,,,0.00,Wunderground v.1.15,2013-01-29 03:55:00,
2013-01-28 20:00:00,54.0,33.7,30.14,West,281,2.0,3.0,46,0.00,,,0.00,Wunderground v.1.15,2013-01-29 04:00:00,
2013-01-28 20:05:00,53.9,33.0,30.14,WNW,282,2.0,3.0,45,0.00,,,0.00,Wunderground v.1.15,2013-01-29 04:05:00,
2013-01-28 20:10:00,53.7,33.4,30.14,WNW,282,2.0,2.0,46,0.00,,,0.00,Wunderground v.1.15,2013-01-29 04:10:00,
2013-01-28 20:20:00,53.3,33.0,30.14,WNW,282,0.0,2.0,46,0.00,,,0.00,Wunderground v.1.15,2013-01-29 04:20:00,
2013-01-28 20:30:00,52.8,33.1,30.14,WNW,282,0.0,0.0,47,0.00,,,0.00,Wunderground v.1.15,2013-01-29 04:30:00,
2013-01-28 20:40:00,51.9,32.8,30.14,WNW,282,0.0,1.0,48,0.00,,,0.00,Wunderground v.1.15,2013-01-29 04:40:00,
2013-01-28 20:45:00,51.7,32.6,30.14,WNW,282,0.0,1.0,48,0.00,,,0.00,Wunderground v.1.15,2013-01-29 04:45:00,
2013-01-28 20:50:00,51.7,32.6,30.14,WNW,282,1.0,2.0,48,0.00,,,0.00,Wunderground v.1.15,2013-01-29 04:50:00,
2013-01-28 20:55:00,51.9,32.8,30.14,WNW,282,1.0,2.0,48,0.00,,,0.00,Wunderground v.1.15,2013-01-29 04:55:00,
2013-01-28 21:00:00,52.0,32.4,30.14,WNW,298,1.0,1.0,47,0.00,,,0.00,Wunderground v.1.15,2013-01-29 05:00:00,
2013-01-28 21:05:00,51.9,32.3,30.14,WNW,298,1.0,1.0,47,0.00,,,0.00,Wunderground v.1.15,2013-01-29 05:05:00,
2013-01-28 21:10:00,51.7,32.6,30.14,WNW,298,0.0,0.0,48,0.00,,,0.00,Wunderground v.1.15,2013-01-29 05:10:00,
2013-01-28 21:20:00,51.3,32.3,30.15,WNW,298,0.0,0.0,48,0.00,,,0.00,Wunderground v.1.15,2013-01-29 05:20:00,
2013-01-28 21:30:00,51.0,33.0,30.15,WNW,298,0.0,0.0,50,0.00,,,0.00,Wunderground v.1.15,2013-01-29 05:30:00,
2013-01-28 21:35:00,50.7,32.7,30.15,WNW,298,0.0,0.0,50,0.00,,,0.00,Wunderground v.1.15,2013-01-29 05:35:00,
2013-01-28 21:40:00,50.6,32.6,30.15,WNW,297,0.0,0.0,50,0.00,,,0.00,Wunderground v.1.15,2013-01-29 05:40:00,
2013-01-28 21:45:00,50.6,32.6,30.15,NW,321,0.0,0.0,50,0.00,,,0.00,Wunderground v.1.15,2013-01-29 05:45:00,
2013-01-28 21:51:00,50.7,32.7,30.15,ENE,67,1.0,1.0,50,0.00,,,0.00,Wunderground v.1.15,2013-01-29 05:51:00,
2013-01-28 21:55:00,50.9,32.4,30.15,NW,325,1.0,2.0,49,0.00,,,0.00,Wunderground v.1.15,2013-01-29 05:55:00,
2013-01-28 22:00:00,51.2,32.7,30.15,NNW,336,1.0,2.0,49,0.00,,,0.00,Wunderground v.1.15,2013-01-29 06:00:00,
2013-01-28 22:05:00,51.5,32.4,30.15,NW,318,2.0,2.0,48,0.00,,,0.00,Wunderground v.1.15,2013-01-29 06:05:00,
2013-01-28 22:10:00,51.8,32.7,30.16,NW,321,2.0,2.0,48,0.00,,,0.00,Wunderground v.1.15,2013-01-29 06:10:00,
2013-01-28 22:20:00,51.9,32.8,30.16,NNW,331,1.0,1.0,48,0.00,,,0.00,Wunderground v.1.15,2013-01-29 06:20:00,
2013-01-28 22:25:00,51.9,32.8,30.16,NW,308,1.0,1.0,48,0.00,,,0.00,Wunderground v.1.15,2013-01-29 06:25:00,
2013-01-28 22:30:00,51.9,32.8,30.16,NW,309,1.0,1.0,48,0.00,,,0.00,Wunderground v.1.15,2013-01-29 06:30:00,
2013-01-28 22:40:00,51.7,32.6,30.15,WNW,300,0.0,0.0,48,0.00,,,0.00,Wunderground v.1.15,2013-01-29 06:40:00,
2013-01-28 22:45:00,51.5,32.4,30.16,WNW,300,0.0,0.0,48,0.00,,,0.00,Wunderground v.1.15,2013-01-29 06:45:00,
2013-01-28 22:55:00,50.8,33.3,30.16,WNW,300,0.0,0.0,51,0.00,,,0.00,Wunderground v.1.15,2013-01-29 06:55:00,
2013-01-28 23:00:00,50.3,32.8,30.16,WNW,300,0.0,0.0,51,0.00,,,0.00,Wunderground v.1.15,2013-01-29 07:00:00,
2013-01-28 23:10:00,49.3,33.3,30.16,WNW,300,0.0,0.0,54,0.00,,,0.00,Wunderground v.1.15,2013-01-29 07:10:00,
2013-01-28 23:15:00,48.6,34.0,30.17,WNW,300,0.0,0.0,57,0.00,,,0.00,Wunderground v.1.15,2013-01-29 07:15:00,
2013-01-28 23:25:00,47.3,33.7,30.16,WNW,300,0.0,0.0,59,0.00,,,0.00,Wunderground v.1.15,2013-01-29 07:25:00,
2013-01-28 23:30:00,47.0,33.4,30.17,WNW,300,0.0,0.0,59,0.00,,,0.00,Wunderground v.1.15,2013-01-29 07:30:00,
2013-01-28 23:45:00,46.0,33.3,30.17,WNW,300,0.0,0.0,61,0.00,,,0.00,Wunderground v.1.15,2013-01-29 07:45:00,
2013-01-28 23:50:00,45.6,33.3,30.17,WNW,300,0.0,0.0,62,0.00,,,0.00,Wunderground v.1.15,2013-01-29 07:50:00,
2013-01-28 23:55:00,45.2,33.3,30.16,WNW,300,0.0,0.0,63,0.00,,,0.00,Wunderground v.1.15,2013-01-29 07:55:00,